sensor_id;sensor_type;location;lat;lon;timestamp;temperature;humidity
59098;DHT22;44883;52.760;6.610;2022-07-22T00:01:51;17.50;99.90
59098;DHT22;44883;52.760;6.610;2022-07-22T00:04:16;17.50;99.90
59098;DHT22;44883;52.760;6.610;2022-07-22T00:06:42;17.50;99.90
59098;DHT22;44883;52.760;6.610;2022-07-22T00:09:08;17.50;99.90
59098;DHT22;44883;52.760;6.610;2022-07-22T00:11:34;17.50;99.90
59098;DHT22;44883;52.760;6.610;2022-07-22T00:13:59;17.50;99.90
59098;DHT22;44883;52.760;6.610;2022-07-22T00:16:25;17.50;99.90
59098;DHT22;44883;52.760;6.610;2022-07-22T00:18:51;17.50;99.90
59098;DHT22;44883;52.760;6.610;2022-07-22T00:21:16;17.50;99.90
59098;DHT22;44883;52.760;6.610;2022-07-22T00:23:42;17.40;99.90
59098;DHT22;44883;52.760;6.610;2022-07-22T00:26:07;17.40;99.90
59098;DHT22;44883;52.760;6.610;2022-07-22T00:28:33;17.50;99.90
59098;DHT22;44883;52.760;6.610;2022-07-22T00:30:58;17.40;99.90
59098;DHT22;44883;52.760;6.610;2022-07-22T00:33:24;17.40;99.90
59098;DHT22;44883;52.760;6.610;2022-07-22T00:35:50;17.40;99.90
59098;DHT22;44883;52.760;6.610;2022-07-22T00:38:15;17.40;99.90
59098;DHT22;44883;52.760;6.610;2022-07-22T00:40:41;17.40;99.90
59098;DHT22;44883;52.760;6.610;2022-07-22T00:43:07;17.40;99.90
59098;DHT22;44883;52.760;6.610;2022-07-22T00:45:32;17.30;99.90
59098;DHT22;44883;52.760;6.610;2022-07-22T00:47:58;17.30;99.90
59098;DHT22;44883;52.760;6.610;2022-07-22T00:50:24;17.30;99.90
59098;DHT22;44883;52.760;6.610;2022-07-22T00:52:50;17.30;99.90
59098;DHT22;44883;52.760;6.610;2022-07-22T00:55:15;17.30;99.90
59098;DHT22;44883;52.760;6.610;2022-07-22T00:57:42;17.30;99.90
59098;DHT22;44883;52.760;6.610;2022-07-22T01:00:13;17.30;99.90
59098;DHT22;44883;52.760;6.610;2022-07-22T01:02:39;17.30;99.90
59098;DHT22;44883;52.760;6.610;2022-07-22T01:05:05;17.30;99.90
59098;DHT22;44883;52.760;6.610;2022-07-22T01:07:31;17.30;99.90
59098;DHT22;44883;52.760;6.610;2022-07-22T01:09:57;17.30;99.90
59098;DHT22;44883;52.760;6.610;2022-07-22T01:12:23;17.30;99.90
59098;DHT22;44883;52.760;6.610;2022-07-22T01:14:48;17.30;99.90
59098;DHT22;44883;52.760;6.610;2022-07-22T01:17:14;17.30;99.90
59098;DHT22;44883;52.760;6.610;2022-07-22T01:19:40;17.30;99.90
59098;DHT22;44883;52.760;6.610;2022-07-22T01:22:06;17.30;99.90
59098;DHT22;44883;52.760;6.610;2022-07-22T01:24:32;17.30;99.90
59098;DHT22;44883;52.760;6.610;2022-07-22T01:26:58;17.30;99.90
59098;DHT22;44883;52.760;6.610;2022-07-22T01:29:24;17.30;99.90
59098;DHT22;44883;52.760;6.610;2022-07-22T01:31:50;17.30;99.90
59098;DHT22;44883;52.760;6.610;2022-07-22T01:34:16;17.30;99.90
59098;DHT22;44883;52.760;6.610;2022-07-22T01:36:41;17.20;99.90
59098;DHT22;44883;52.760;6.610;2022-07-22T01:39:07;17.20;99.90
59098;DHT22;44883;52.760;6.610;2022-07-22T01:41:32;17.20;99.90
59098;DHT22;44883;52.760;6.610;2022-07-22T01:43:58;17.20;99.90
59098;DHT22;44883;52.760;6.610;2022-07-22T01:46:24;17.20;99.90
59098;DHT22;44883;52.760;6.610;2022-07-22T01:48:51;17.10;99.90
59098;DHT22;44883;52.760;6.610;2022-07-22T01:51:17;17.20;99.90
59098;DHT22;44883;52.760;6.610;2022-07-22T01:53:43;17.10;99.90
59098;DHT22;44883;52.760;6.610;2022-07-22T01:56:09;17.10;99.90
59098;DHT22;44883;52.760;6.610;2022-07-22T01:58:34;17.10;99.90
59098;DHT22;44883;52.760;6.610;2022-07-22T02:01:00;17.10;99.90
59098;DHT22;44883;52.760;6.610;2022-07-22T02:03:26;17.10;99.90
59098;DHT22;44883;52.760;6.610;2022-07-22T02:05:51;17.10;99.90
59098;DHT22;44883;52.760;6.610;2022-07-22T02:08:17;17.10;99.90
59098;DHT22;44883;52.760;6.610;2022-07-22T02:10:44;17.10;99.90
59098;DHT22;44883;52.760;6.610;2022-07-22T02:13:10;17.00;99.90
59098;DHT22;44883;52.760;6.610;2022-07-22T02:15:35;17.10;99.90
59098;DHT22;44883;52.760;6.610;2022-07-22T02:18:13;17.00;99.90
59098;DHT22;44883;52.760;6.610;2022-07-22T02:20:38;17.00;99.90
59098;DHT22;44883;52.760;6.610;2022-07-22T02:23:04;17.00;99.90
59098;DHT22;44883;52.760;6.610;2022-07-22T02:25:30;17.00;99.90
59098;DHT22;44883;52.760;6.610;2022-07-22T02:27:55;17.00;99.90
59098;DHT22;44883;52.760;6.610;2022-07-22T02:30:21;17.00;99.90
59098;DHT22;44883;52.760;6.610;2022-07-22T02:32:47;17.00;99.90
59098;DHT22;44883;52.760;6.610;2022-07-22T02:35:12;17.00;99.90
59098;DHT22;44883;52.760;6.610;2022-07-22T02:37:38;17.00;99.90
59098;DHT22;44883;52.760;6.610;2022-07-22T02:40:05;17.00;99.90
59098;DHT22;44883;52.760;6.610;2022-07-22T02:42:30;17.00;99.90
59098;DHT22;44883;52.760;6.610;2022-07-22T02:44:56;17.00;99.90
59098;DHT22;44883;52.760;6.610;2022-07-22T02:47:21;17.00;99.90
59098;DHT22;44883;52.760;6.610;2022-07-22T02:49:47;17.00;99.90
59098;DHT22;44883;52.760;6.610;2022-07-22T02:52:12;17.00;99.90
59098;DHT22;44883;52.760;6.610;2022-07-22T02:54:38;17.00;99.90
59098;DHT22;44883;52.760;6.610;2022-07-22T02:57:04;16.90;99.90
59098;DHT22;44883;52.760;6.610;2022-07-22T02:59:29;16.90;99.90
59098;DHT22;44883;52.760;6.610;2022-07-22T03:01:55;16.90;99.90
59098;DHT22;44883;52.760;6.610;2022-07-22T03:04:20;16.90;99.90
59098;DHT22;44883;52.760;6.610;2022-07-22T03:06:46;16.90;99.90
59098;DHT22;44883;52.760;6.610;2022-07-22T03:09:11;16.90;99.90
59098;DHT22;44883;52.760;6.610;2022-07-22T03:11:37;16.80;99.90
59098;DHT22;44883;52.760;6.610;2022-07-22T03:14:03;16.80;99.90
59098;DHT22;44883;52.760;6.610;2022-07-22T03:16:29;16.80;99.90
59098;DHT22;44883;52.760;6.610;2022-07-22T03:18:54;16.80;99.90
59098;DHT22;44883;52.760;6.610;2022-07-22T03:21:20;16.80;99.90
59098;DHT22;44883;52.760;6.610;2022-07-22T03:23:45;16.80;99.90
59098;DHT22;44883;52.760;6.610;2022-07-22T03:26:11;16.80;99.90
59098;DHT22;44883;52.760;6.610;2022-07-22T03:28:36;16.80;99.90
59098;DHT22;44883;52.760;6.610;2022-07-22T03:31:02;16.80;99.90
59098;DHT22;44883;52.760;6.610;2022-07-22T03:33:28;16.80;99.90
59098;DHT22;44883;52.760;6.610;2022-07-22T03:35:53;16.70;99.90
59098;DHT22;44883;52.760;6.610;2022-07-22T03:38:19;16.70;99.90
59098;DHT22;44883;52.760;6.610;2022-07-22T03:40:44;16.70;99.90
59098;DHT22;44883;52.760;6.610;2022-07-22T03:43:10;16.70;99.90
59098;DHT22;44883;52.760;6.610;2022-07-22T03:45:35;16.70;99.90
59098;DHT22;44883;52.760;6.610;2022-07-22T03:48:01;16.70;99.90
59098;DHT22;44883;52.760;6.610;2022-07-22T03:50:27;16.60;99.90
59098;DHT22;44883;52.760;6.610;2022-07-22T03:52:52;16.60;99.90
59098;DHT22;44883;52.760;6.610;2022-07-22T03:55:18;16.70;99.90
59098;DHT22;44883;52.760;6.610;2022-07-22T03:57:43;16.60;99.90
59098;DHT22;44883;52.760;6.610;2022-07-22T04:00:09;16.60;99.90
59098;DHT22;44883;52.760;6.610;2022-07-22T04:02:35;16.60;99.90
59098;DHT22;44883;52.760;6.610;2022-07-22T04:05:00;16.60;99.90
59098;DHT22;44883;52.760;6.610;2022-07-22T04:07:26;16.60;99.90
59098;DHT22;44883;52.760;6.610;2022-07-22T04:09:51;16.60;99.90
59098;DHT22;44883;52.760;6.610;2022-07-22T04:12:17;16.60;99.90
59098;DHT22;44883;52.760;6.610;2022-07-22T04:14:42;16.70;99.90
59098;DHT22;44883;52.760;6.610;2022-07-22T04:17:08;16.60;99.90
59098;DHT22;44883;52.760;6.610;2022-07-22T04:19:33;16.70;99.90
59098;DHT22;44883;52.760;6.610;2022-07-22T04:21:59;16.70;99.90
59098;DHT22;44883;52.760;6.610;2022-07-22T04:24:25;16.70;99.90
59098;DHT22;44883;52.760;6.610;2022-07-22T04:26:50;16.70;99.90
59098;DHT22;44883;52.760;6.610;2022-07-22T04:29:16;16.70;99.90
59098;DHT22;44883;52.760;6.610;2022-07-22T04:31:41;16.70;99.90
59098;DHT22;44883;52.760;6.610;2022-07-22T04:34:07;16.70;99.90
59098;DHT22;44883;52.760;6.610;2022-07-22T04:36:32;16.70;99.90
59098;DHT22;44883;52.760;6.610;2022-07-22T04:38:58;16.70;99.90
59098;DHT22;44883;52.760;6.610;2022-07-22T04:41:24;16.70;99.90
59098;DHT22;44883;52.760;6.610;2022-07-22T04:43:49;16.80;99.90
59098;DHT22;44883;52.760;6.610;2022-07-22T04:46:15;16.80;99.90
59098;DHT22;44883;52.760;6.610;2022-07-22T04:48:40;16.80;99.90
59098;DHT22;44883;52.760;6.610;2022-07-22T04:51:06;16.80;99.90
59098;DHT22;44883;52.760;6.610;2022-07-22T04:53:32;16.90;99.90
59098;DHT22;44883;52.760;6.610;2022-07-22T04:55:57;16.90;99.90
59098;DHT22;44883;52.760;6.610;2022-07-22T04:58:23;16.90;99.90
59098;DHT22;44883;52.760;6.610;2022-07-22T05:00:48;16.90;99.90
59098;DHT22;44883;52.760;6.610;2022-07-22T05:03:14;16.90;99.90
59098;DHT22;44883;52.760;6.610;2022-07-22T05:05:40;16.90;99.90
59098;DHT22;44883;52.760;6.610;2022-07-22T05:08:05;17.00;99.90
59098;DHT22;44883;52.760;6.610;2022-07-22T05:10:31;17.00;99.90
59098;DHT22;44883;52.760;6.610;2022-07-22T05:12:58;17.00;99.90
59098;DHT22;44883;52.760;6.610;2022-07-22T05:15:23;17.00;99.90
59098;DHT22;44883;52.760;6.610;2022-07-22T05:17:49;17.10;99.90
59098;DHT22;44883;52.760;6.610;2022-07-22T05:20:16;17.10;99.90
59098;DHT22;44883;52.760;6.610;2022-07-22T05:22:42;17.10;99.90
59098;DHT22;44883;52.760;6.610;2022-07-22T05:25:08;17.10;99.90
59098;DHT22;44883;52.760;6.610;2022-07-22T05:27:33;17.20;99.90
59098;DHT22;44883;52.760;6.610;2022-07-22T05:29:59;17.20;99.90
59098;DHT22;44883;52.760;6.610;2022-07-22T05:32:25;17.20;99.90
59098;DHT22;44883;52.760;6.610;2022-07-22T05:34:50;17.20;99.90
59098;DHT22;44883;52.760;6.610;2022-07-22T05:37:16;17.20;99.90
59098;DHT22;44883;52.760;6.610;2022-07-22T05:39:43;17.10;99.90
59098;DHT22;44883;52.760;6.610;2022-07-22T05:42:08;17.20;99.90
59098;DHT22;44883;52.760;6.610;2022-07-22T05:44:34;17.20;99.90
59098;DHT22;44883;52.760;6.610;2022-07-22T05:47:00;17.20;99.90
59098;DHT22;44883;52.760;6.610;2022-07-22T05:49:25;17.30;99.90
59098;DHT22;44883;52.760;6.610;2022-07-22T05:51:53;17.30;99.90
59098;DHT22;44883;52.760;6.610;2022-07-22T05:54:19;17.30;99.90
59098;DHT22;44883;52.760;6.610;2022-07-22T05:56:45;17.40;99.90
59098;DHT22;44883;52.760;6.610;2022-07-22T05:59:11;17.40;99.90
59098;DHT22;44883;52.760;6.610;2022-07-22T06:01:36;17.40;99.90
59098;DHT22;44883;52.760;6.610;2022-07-22T06:04:02;17.50;99.90
59098;DHT22;44883;52.760;6.610;2022-07-22T06:06:28;17.50;99.90
59098;DHT22;44883;52.760;6.610;2022-07-22T06:08:53;17.60;99.90
59098;DHT22;44883;52.760;6.610;2022-07-22T06:11:19;17.70;99.90
59098;DHT22;44883;52.760;6.610;2022-07-22T06:13:45;17.70;99.90
59098;DHT22;44883;52.760;6.610;2022-07-22T06:16:10;17.80;99.90
59098;DHT22;44883;52.760;6.610;2022-07-22T06:18:36;17.90;99.90
59098;DHT22;44883;52.760;6.610;2022-07-22T06:21:01;18.00;99.90
59098;DHT22;44883;52.760;6.610;2022-07-22T06:23:27;18.00;99.90
59098;DHT22;44883;52.760;6.610;2022-07-22T06:25:53;18.00;99.90
59098;DHT22;44883;52.760;6.610;2022-07-22T06:28:18;18.00;99.90
59098;DHT22;44883;52.760;6.610;2022-07-22T06:30:44;18.10;99.90
59098;DHT22;44883;52.760;6.610;2022-07-22T06:33:09;18.10;99.90
59098;DHT22;44883;52.760;6.610;2022-07-22T06:35:37;18.20;99.90
59098;DHT22;44883;52.760;6.610;2022-07-22T06:38:03;18.20;99.90
59098;DHT22;44883;52.760;6.610;2022-07-22T06:40:28;18.30;99.90
59098;DHT22;44883;52.760;6.610;2022-07-22T06:42:54;18.30;99.90
59098;DHT22;44883;52.760;6.610;2022-07-22T06:45:19;18.40;99.90
59098;DHT22;44883;52.760;6.610;2022-07-22T06:47:45;18.40;99.90
59098;DHT22;44883;52.760;6.610;2022-07-22T06:50:11;18.50;99.90
59098;DHT22;44883;52.760;6.610;2022-07-22T06:52:40;18.50;99.90
59098;DHT22;44883;52.760;6.610;2022-07-22T06:55:07;18.60;99.90
59098;DHT22;44883;52.760;6.610;2022-07-22T06:57:33;18.60;99.90
59098;DHT22;44883;52.760;6.610;2022-07-22T06:59:59;18.70;99.90
59098;DHT22;44883;52.760;6.610;2022-07-22T07:02:25;18.80;99.90
59098;DHT22;44883;52.760;6.610;2022-07-22T07:04:50;18.90;99.90
59098;DHT22;44883;52.760;6.610;2022-07-22T07:07:16;18.90;99.90
59098;DHT22;44883;52.760;6.610;2022-07-22T07:09:41;18.90;99.90
59098;DHT22;44883;52.760;6.610;2022-07-22T07:12:07;18.90;99.20
59098;DHT22;44883;52.760;6.610;2022-07-22T07:14:33;18.90;99.40
59098;DHT22;44883;52.760;6.610;2022-07-22T07:16:58;18.90;99.90
59098;DHT22;44883;52.760;6.610;2022-07-22T07:19:24;18.90;99.50
59098;DHT22;44883;52.760;6.610;2022-07-22T07:21:49;19.00;99.60
59098;DHT22;44883;52.760;6.610;2022-07-22T07:24:15;19.10;99.10
59098;DHT22;44883;52.760;6.610;2022-07-22T07:26:40;19.10;99.30
59098;DHT22;44883;52.760;6.610;2022-07-22T07:29:06;19.10;99.50
59098;DHT22;44883;52.760;6.610;2022-07-22T07:31:32;19.20;99.60
59098;DHT22;44883;52.760;6.610;2022-07-22T07:33:57;19.30;98.80
59098;DHT22;44883;52.760;6.610;2022-07-22T07:36:23;19.40;98.60
59098;DHT22;44883;52.760;6.610;2022-07-22T07:38:49;19.40;98.90
59098;DHT22;44883;52.760;6.610;2022-07-22T07:41:15;19.50;98.40
59098;DHT22;44883;52.760;6.610;2022-07-22T07:43:40;19.60;97.70
59098;DHT22;44883;52.760;6.610;2022-07-22T07:46:06;19.50;96.30
59098;DHT22;44883;52.760;6.610;2022-07-22T07:48:32;19.50;96.00
59098;DHT22;44883;52.760;6.610;2022-07-22T07:50:57;19.70;96.30
59098;DHT22;44883;52.760;6.610;2022-07-22T07:53:23;19.80;96.10
59098;DHT22;44883;52.760;6.610;2022-07-22T07:55:49;19.90;96.40
59098;DHT22;44883;52.760;6.610;2022-07-22T07:58:15;20.00;94.80
59098;DHT22;44883;52.760;6.610;2022-07-22T08:00:41;19.90;93.30
59098;DHT22;44883;52.760;6.610;2022-07-22T08:03:08;19.90;93.50
59098;DHT22;44883;52.760;6.610;2022-07-22T08:05:34;20.10;94.40
59098;DHT22;44883;52.760;6.610;2022-07-22T08:07:59;20.30;94.00
59098;DHT22;44883;52.760;6.610;2022-07-22T08:10:25;20.30;92.90
59098;DHT22;44883;52.760;6.610;2022-07-22T08:12:52;20.30;90.90
59098;DHT22;44883;52.760;6.610;2022-07-22T08:15:19;20.10;91.10
59098;DHT22;44883;52.760;6.610;2022-07-22T08:17:44;20.20;92.40
59098;DHT22;44883;52.760;6.610;2022-07-22T08:20:10;20.30;92.40
59098;DHT22;44883;52.760;6.610;2022-07-22T08:22:36;20.50;92.00
59098;DHT22;44883;52.760;6.610;2022-07-22T08:25:02;20.60;91.70
59098;DHT22;44883;52.760;6.610;2022-07-22T08:27:27;20.60;91.20
59098;DHT22;44883;52.760;6.610;2022-07-22T08:29:53;20.60;90.80
59098;DHT22;44883;52.760;6.610;2022-07-22T08:32:19;20.70;90.40
59098;DHT22;44883;52.760;6.610;2022-07-22T08:34:44;20.80;91.10
59098;DHT22;44883;52.760;6.610;2022-07-22T08:37:10;20.80;89.00
59098;DHT22;44883;52.760;6.610;2022-07-22T08:39:36;20.80;90.70
59098;DHT22;44883;52.760;6.610;2022-07-22T08:42:02;20.70;90.50
59098;DHT22;44883;52.760;6.610;2022-07-22T08:44:32;20.80;90.90
59098;DHT22;44883;52.760;6.610;2022-07-22T08:46:59;20.80;90.90
59098;DHT22;44883;52.760;6.610;2022-07-22T08:49:25;20.70;90.10
59098;DHT22;44883;52.760;6.610;2022-07-22T08:51:50;20.60;90.90
59098;DHT22;44883;52.760;6.610;2022-07-22T08:54:16;20.70;91.10
59098;DHT22;44883;52.760;6.610;2022-07-22T08:56:46;20.70;90.70
59098;DHT22;44883;52.760;6.610;2022-07-22T08:59:12;20.70;90.30
59098;DHT22;44883;52.760;6.610;2022-07-22T09:01:37;20.70;90.10
59098;DHT22;44883;52.760;6.610;2022-07-22T09:04:04;20.60;90.20
59098;DHT22;44883;52.760;6.610;2022-07-22T09:06:30;20.50;90.30
59098;DHT22;44883;52.760;6.610;2022-07-22T09:09:03;20.40;90.10
59098;DHT22;44883;52.760;6.610;2022-07-22T09:11:30;20.30;90.70
59098;DHT22;44883;52.760;6.610;2022-07-22T09:14:00;20.30;90.80
59098;DHT22;44883;52.760;6.610;2022-07-22T09:16:45;20.20;91.10
59098;DHT22;44883;52.760;6.610;2022-07-22T09:19:12;20.30;91.20
59098;DHT22;44883;52.760;6.610;2022-07-22T09:21:40;20.30;91.10
59098;DHT22;44883;52.760;6.610;2022-07-22T09:24:07;20.30;91.10
59098;DHT22;44883;52.760;6.610;2022-07-22T09:26:38;20.20;91.50
59098;DHT22;44883;52.760;6.610;2022-07-22T09:29:05;20.10;91.50
59098;DHT22;44883;52.760;6.610;2022-07-22T09:31:33;20.10;91.60
59098;DHT22;44883;52.760;6.610;2022-07-22T09:33:59;20.10;91.00
59098;DHT22;44883;52.760;6.610;2022-07-22T09:36:25;20.10;92.00
59098;DHT22;44883;52.760;6.610;2022-07-22T09:38:51;20.10;92.00
59098;DHT22;44883;52.760;6.610;2022-07-22T09:41:17;20.20;92.10
59098;DHT22;44883;52.760;6.610;2022-07-22T09:43:43;20.20;92.70
59098;DHT22;44883;52.760;6.610;2022-07-22T09:46:09;20.20;93.20
59098;DHT22;44883;52.760;6.610;2022-07-22T09:48:36;20.30;92.70
59098;DHT22;44883;52.760;6.610;2022-07-22T09:51:02;20.30;92.10
59098;DHT22;44883;52.760;6.610;2022-07-22T09:53:29;20.40;92.50
59098;DHT22;44883;52.760;6.610;2022-07-22T09:56:00;20.50;92.50
59098;DHT22;44883;52.760;6.610;2022-07-22T09:58:27;20.80;91.50
59098;DHT22;44883;52.760;6.610;2022-07-22T10:00:54;21.20;91.10
59098;DHT22;44883;52.760;6.610;2022-07-22T10:03:28;21.60;90.40
59098;DHT22;44883;52.760;6.610;2022-07-22T10:05:54;22.00;87.80
59098;DHT22;44883;52.760;6.610;2022-07-22T10:08:21;22.40;87.20
59098;DHT22;44883;52.760;6.610;2022-07-22T10:10:47;22.80;83.80
59098;DHT22;44883;52.760;6.610;2022-07-22T10:13:13;23.00;78.90
59098;DHT22;44883;52.760;6.610;2022-07-22T10:15:39;23.10;80.50
59098;DHT22;44883;52.760;6.610;2022-07-22T10:18:08;23.20;77.50
59098;DHT22;44883;52.760;6.610;2022-07-22T10:20:38;23.20;77.00
59098;DHT22;44883;52.760;6.610;2022-07-22T10:23:05;23.10;75.80
59098;DHT22;44883;52.760;6.610;2022-07-22T10:30:46;22.70;68.30
59098;DHT22;44883;52.760;6.610;2022-07-22T10:33:14;22.40;70.90
59098;DHT22;44883;52.760;6.610;2022-07-22T10:38:10;22.20;78.40
59098;DHT22;44883;52.760;6.610;2022-07-22T10:43:18;22.00;79.10
59098;DHT22;44883;52.760;6.610;2022-07-22T10:45:45;21.90;80.60
59098;DHT22;44883;52.760;6.610;2022-07-22T10:48:17;21.80;81.60
59098;DHT22;44883;52.760;6.610;2022-07-22T10:50:48;21.70;86.90
59098;DHT22;44883;52.760;6.610;2022-07-22T10:53:23;21.60;84.60
59098;DHT22;44883;52.760;6.610;2022-07-22T10:56:05;21.50;84.60
59098;DHT22;44883;52.760;6.610;2022-07-22T11:01:02;21.40;87.70
59098;DHT22;44883;52.760;6.610;2022-07-22T11:03:30;21.10;83.30
59098;DHT22;44883;52.760;6.610;2022-07-22T11:05:56;21.10;86.20
59098;DHT22;44883;52.760;6.610;2022-07-22T11:08:22;21.10;86.40
59098;DHT22;44883;52.760;6.610;2022-07-22T11:10:49;20.80;83.40
59098;DHT22;44883;52.760;6.610;2022-07-22T11:13:34;20.70;88.30
59098;DHT22;44883;52.760;6.610;2022-07-22T11:16:16;20.50;86.80
59098;DHT22;44883;52.760;6.610;2022-07-22T11:18:53;20.40;89.40
59098;DHT22;44883;52.760;6.610;2022-07-22T11:21:22;20.40;90.70
59098;DHT22;44883;52.760;6.610;2022-07-22T11:23:50;20.50;90.70
59098;DHT22;44883;52.760;6.610;2022-07-22T11:26:18;20.30;90.50
59098;DHT22;44883;52.760;6.610;2022-07-22T11:28:45;20.20;91.80
59098;DHT22;44883;52.760;6.610;2022-07-22T11:31:17;20.20;91.10
59098;DHT22;44883;52.760;6.610;2022-07-22T11:33:45;20.30;92.10
59098;DHT22;44883;52.760;6.610;2022-07-22T11:36:11;20.40;91.10
59098;DHT22;44883;52.760;6.610;2022-07-22T11:38:45;20.30;91.10
59098;DHT22;44883;52.760;6.610;2022-07-22T11:41:12;20.20;91.20
59098;DHT22;44883;52.760;6.610;2022-07-22T11:43:49;20.20;91.60
59098;DHT22;44883;52.760;6.610;2022-07-22T11:46:17;20.00;90.80
59098;DHT22;44883;52.760;6.610;2022-07-22T11:48:43;19.60;91.60
59098;DHT22;44883;52.760;6.610;2022-07-22T11:51:11;19.60;93.50
59098;DHT22;44883;52.760;6.610;2022-07-22T11:53:38;19.60;94.70
59098;DHT22;44883;52.760;6.610;2022-07-22T11:56:05;19.80;94.30
59098;DHT22;44883;52.760;6.610;2022-07-22T11:58:46;20.00;94.00
59098;DHT22;44883;52.760;6.610;2022-07-22T12:01:14;20.10;93.70
59098;DHT22;44883;52.760;6.610;2022-07-22T12:03:47;20.20;92.50
59098;DHT22;44883;52.760;6.610;2022-07-22T12:06:15;20.20;93.80
59098;DHT22;44883;52.760;6.610;2022-07-22T12:08:43;20.30;93.30
59098;DHT22;44883;52.760;6.610;2022-07-22T12:11:14;20.30;92.70
59098;DHT22;44883;52.760;6.610;2022-07-22T12:13:45;20.40;93.10
59098;DHT22;44883;52.760;6.610;2022-07-22T12:16:25;20.40;91.90
59098;DHT22;44883;52.760;6.610;2022-07-22T12:18:58;20.50;91.60
59098;DHT22;44883;52.760;6.610;2022-07-22T12:21:27;20.60;91.20
59098;DHT22;44883;52.760;6.610;2022-07-22T12:24:03;20.70;91.20
59098;DHT22;44883;52.760;6.610;2022-07-22T12:26:42;20.90;90.90
59098;DHT22;44883;52.760;6.610;2022-07-22T12:31:54;20.90;89.20
59098;DHT22;44883;52.760;6.610;2022-07-22T12:35:02;21.00;91.40
59098;DHT22;44883;52.760;6.610;2022-07-22T12:37:43;21.10;90.00
59098;DHT22;44883;52.760;6.610;2022-07-22T12:40:22;21.20;89.60
59098;DHT22;44883;52.760;6.610;2022-07-22T12:43:08;21.40;89.80
59098;DHT22;44883;52.760;6.610;2022-07-22T12:45:36;21.50;86.40
59098;DHT22;44883;52.760;6.610;2022-07-22T12:53:02;22.00;84.70
59098;DHT22;44883;52.760;6.610;2022-07-22T12:55:30;22.10;80.60
59098;DHT22;44883;52.760;6.610;2022-07-22T12:57:56;22.30;82.20
59098;DHT22;44883;52.760;6.610;2022-07-22T13:00:24;22.40;80.30
59098;DHT22;44883;52.760;6.610;2022-07-22T13:02:50;22.50;77.60
59098;DHT22;44883;52.760;6.610;2022-07-22T13:05:16;22.40;71.20
59098;DHT22;44883;52.760;6.610;2022-07-22T13:07:42;22.30;77.40
59098;DHT22;44883;52.760;6.610;2022-07-22T13:10:09;22.20;80.40
59098;DHT22;44883;52.760;6.610;2022-07-22T13:12:35;22.30;78.90
59098;DHT22;44883;52.760;6.610;2022-07-22T13:15:00;22.30;78.20
59098;DHT22;44883;52.760;6.610;2022-07-22T13:17:26;22.30;79.80
59098;DHT22;44883;52.760;6.610;2022-07-22T13:19:52;22.30;79.40
59098;DHT22;44883;52.760;6.610;2022-07-22T13:22:17;22.30;78.30
59098;DHT22;44883;52.760;6.610;2022-07-22T13:24:43;22.10;79.20
59098;DHT22;44883;52.760;6.610;2022-07-22T13:27:09;22.10;81.20
59098;DHT22;44883;52.760;6.610;2022-07-22T13:29:34;22.10;81.30
59098;DHT22;44883;52.760;6.610;2022-07-22T13:32:00;22.00;81.90
59098;DHT22;44883;52.760;6.610;2022-07-22T13:34:25;22.10;80.00
59098;DHT22;44883;52.760;6.610;2022-07-22T13:36:51;22.00;77.20
59098;DHT22;44883;52.760;6.610;2022-07-22T13:39:17;22.00;77.80
59098;DHT22;44883;52.760;6.610;2022-07-22T13:41:42;22.00;81.10
59098;DHT22;44883;52.760;6.610;2022-07-22T13:44:08;22.00;80.60
59098;DHT22;44883;52.760;6.610;2022-07-22T13:46:35;21.90;80.20
59098;DHT22;44883;52.760;6.610;2022-07-22T13:49:00;22.00;79.50
59098;DHT22;44883;52.760;6.610;2022-07-22T13:51:26;21.90;77.10
59098;DHT22;44883;52.760;6.610;2022-07-22T13:53:52;21.90;80.20
59098;DHT22;44883;52.760;6.610;2022-07-22T13:56:17;22.00;81.10
59098;DHT22;44883;52.760;6.610;2022-07-22T13:58:43;21.90;78.80
59098;DHT22;44883;52.760;6.610;2022-07-22T14:01:09;21.90;76.60
59098;DHT22;44883;52.760;6.610;2022-07-22T14:03:36;21.80;77.70
59098;DHT22;44883;52.760;6.610;2022-07-22T14:06:03;21.70;79.00
59098;DHT22;44883;52.760;6.610;2022-07-22T14:08:28;21.70;80.20
59098;DHT22;44883;52.760;6.610;2022-07-22T14:10:54;21.50;81.00
59098;DHT22;44883;52.760;6.610;2022-07-22T14:13:20;21.50;84.10
59098;DHT22;44883;52.760;6.610;2022-07-22T14:15:45;21.30;79.00
59098;DHT22;44883;52.760;6.610;2022-07-22T14:18:11;21.20;83.50
59098;DHT22;44883;52.760;6.610;2022-07-22T14:20:36;21.10;84.60
59098;DHT22;44883;52.760;6.610;2022-07-22T14:23:03;21.00;85.20
59098;DHT22;44883;52.760;6.610;2022-07-22T14:25:31;20.90;84.60
59098;DHT22;44883;52.760;6.610;2022-07-22T14:27:57;20.90;86.00
59098;DHT22;44883;52.760;6.610;2022-07-22T14:30:23;20.80;85.90
59098;DHT22;44883;52.760;6.610;2022-07-22T14:32:49;20.90;87.50
59098;DHT22;44883;52.760;6.610;2022-07-22T14:35:14;20.90;86.50
59098;DHT22;44883;52.760;6.610;2022-07-22T14:37:40;21.00;86.80
59098;DHT22;44883;52.760;6.610;2022-07-22T14:40:06;21.00;90.00
59098;DHT22;44883;52.760;6.610;2022-07-22T14:42:31;21.00;87.10
59098;DHT22;44883;52.760;6.610;2022-07-22T14:44:57;21.10;87.10
59098;DHT22;44883;52.760;6.610;2022-07-22T14:47:23;21.10;85.60
59098;DHT22;44883;52.760;6.610;2022-07-22T14:49:48;21.00;82.80
59098;DHT22;44883;52.760;6.610;2022-07-22T14:52:14;20.90;85.90
59098;DHT22;44883;52.760;6.610;2022-07-22T14:54:39;21.00;87.30
59098;DHT22;44883;52.760;6.610;2022-07-22T14:57:05;21.00;82.00
59098;DHT22;44883;52.760;6.610;2022-07-22T14:59:31;20.80;85.50
59098;DHT22;44883;52.760;6.610;2022-07-22T15:01:56;21.00;87.80
59098;DHT22;44883;52.760;6.610;2022-07-22T15:04:22;21.00;89.40
59098;DHT22;44883;52.760;6.610;2022-07-22T15:06:47;21.10;89.30
59098;DHT22;44883;52.760;6.610;2022-07-22T15:09:13;21.10;88.20
59098;DHT22;44883;52.760;6.610;2022-07-22T15:11:38;21.10;87.10
59098;DHT22;44883;52.760;6.610;2022-07-22T15:14:04;21.10;88.70
59098;DHT22;44883;52.760;6.610;2022-07-22T15:16:30;21.10;87.60
59098;DHT22;44883;52.760;6.610;2022-07-22T15:18:55;21.10;87.70
59098;DHT22;44883;52.760;6.610;2022-07-22T15:21:21;21.10;89.00
59098;DHT22;44883;52.760;6.610;2022-07-22T15:23:47;21.20;87.80
59098;DHT22;44883;52.760;6.610;2022-07-22T15:26:14;21.00;86.00
59098;DHT22;44883;52.760;6.610;2022-07-22T15:28:39;21.10;88.50
59098;DHT22;44883;52.760;6.610;2022-07-22T15:31:05;21.10;90.40
59098;DHT22;44883;52.760;6.610;2022-07-22T15:33:32;21.10;88.60
59098;DHT22;44883;52.760;6.610;2022-07-22T15:35:58;21.10;87.40
59098;DHT22;44883;52.760;6.610;2022-07-22T15:38:23;21.10;88.10
59098;DHT22;44883;52.760;6.610;2022-07-22T15:40:49;21.10;89.10
59098;DHT22;44883;52.760;6.610;2022-07-22T15:43:14;21.00;88.80
59098;DHT22;44883;52.760;6.610;2022-07-22T15:45:40;21.00;89.80
59098;DHT22;44883;52.760;6.610;2022-07-22T15:48:05;20.90;89.20